createdAt,value
2018-03-27T00:00:26.731Z,2.70
2018-03-27T00:02:53.662Z,3.13
2018-03-27T00:05:21.373Z,2.20
2018-03-27T00:07:49.277Z,2.30
2018-03-27T00:10:16.337Z,2.50
2018-03-27T00:12:43.312Z,2.23
2018-03-27T00:15:11.824Z,2.17
2018-03-27T00:17:38.665Z,2.33
2018-03-27T00:20:05.929Z,3.10
2018-03-27T00:22:32.777Z,2.40
2018-03-27T00:24:59.626Z,2.73
2018-03-27T00:27:45.558Z,2.90
2018-03-27T00:30:31.610Z,2.57
2018-03-27T00:33:16.975Z,2.30
2018-03-27T00:36:02.374Z,2.30
2018-03-27T00:38:47.730Z,2.43
2018-03-27T00:44:50.117Z,2.13
2018-03-27T00:47:16.994Z,2.80
2018-03-27T00:49:44.642Z,2.63
2018-03-27T00:52:12.181Z,2.90
2018-03-27T00:54:39.095Z,2.50
2018-03-27T00:57:06.149Z,2.83
2018-03-27T00:59:33.044Z,3.23
2018-03-27T01:02:00.206Z,2.83
2018-03-27T01:04:27.263Z,2.20
2018-03-27T01:06:54.251Z,2.33
2018-03-27T01:09:21.786Z,2.80
2018-03-27T01:11:48.828Z,2.33
2018-03-27T01:14:16.443Z,2.53
2018-03-27T01:16:43.273Z,3.10
2018-03-27T01:19:10.148Z,2.60
2018-03-27T01:21:37.050Z,2.23
2018-03-27T01:24:04.700Z,2.93
2018-03-27T01:26:32.361Z,2.80
2018-03-27T01:28:59.324Z,2.40
2018-03-27T01:31:26.172Z,2.40
2018-03-27T01:33:53.112Z,2.50
2018-03-27T01:36:21.063Z,2.20
2018-03-27T01:38:48.569Z,2.70
2018-03-27T01:41:16.174Z,3.50
2018-03-27T01:43:43.438Z,3.00
2018-03-27T01:46:11.102Z,2.10
2018-03-27T01:48:37.889Z,3.03
2018-03-27T01:51:04.915Z,2.47
2018-03-27T01:53:31.994Z,2.50
2018-03-27T01:55:59.055Z,2.60
2018-03-27T01:58:25.998Z,2.37
2018-03-27T02:00:52.945Z,2.43
2018-03-27T02:03:19.899Z,2.93
2018-03-27T02:05:46.846Z,3.03
2018-03-27T02:08:13.739Z,2.47
2018-03-27T02:10:41.362Z,2.70
2018-03-27T02:13:15.707Z,2.60
2018-03-27T02:15:49.980Z,3.17
2018-03-27T02:18:22.967Z,2.87
2018-03-27T02:20:56.179Z,2.83
2018-03-27T02:23:38.069Z,2.60
2018-03-27T02:26:05.768Z,2.90
2018-03-27T02:28:33.399Z,2.80
2018-03-27T02:31:01.082Z,2.53
2018-03-27T02:33:28.583Z,3.10
2018-03-27T02:35:55.650Z,2.77
2018-03-27T02:38:22.909Z,2.90
2018-03-27T02:40:49.889Z,3.13
2018-03-27T02:43:16.769Z,2.70
2018-03-27T02:45:45.122Z,2.67
2018-03-27T02:48:12.086Z,2.80
2018-03-27T02:50:39.221Z,2.73
2018-03-27T02:53:06.176Z,2.77
2018-03-27T02:55:33.233Z,3.27
2018-03-27T02:58:00.033Z,2.83
2018-03-27T03:00:27.091Z,2.70
2018-03-27T03:02:54.800Z,2.30
2018-03-27T03:05:21.754Z,2.70
2018-03-27T03:07:48.897Z,2.60
2018-03-27T03:10:15.853Z,2.53
2018-03-27T03:12:42.852Z,3.30
2018-03-27T03:15:09.688Z,3.03
2018-03-27T03:17:36.707Z,3.27
2018-03-27T03:20:03.597Z,3.00
2018-03-27T03:22:30.711Z,2.60
2018-03-27T03:24:58.153Z,2.67
2018-03-27T03:27:25.136Z,3.17
2018-03-27T03:29:53.095Z,2.53
2018-03-27T03:32:19.955Z,2.73
2018-03-27T03:34:47.560Z,2.57
2018-03-27T03:37:14.465Z,2.50
2018-03-27T03:39:41.691Z,2.50
2018-03-27T03:42:09.301Z,2.30
2018-03-27T03:44:37.045Z,2.50
2018-03-27T03:47:03.982Z,2.70
2018-03-27T03:49:30.784Z,2.13
2018-03-27T03:51:57.685Z,2.13
2018-03-27T03:54:24.596Z,1.60
2018-03-27T03:56:51.495Z,2.20
2018-03-27T03:59:18.453Z,1.97
2018-03-27T04:01:45.305Z,1.97
2018-03-27T04:04:12.188Z,1.93
2018-03-27T04:06:39.044Z,1.93
2018-03-27T04:09:05.890Z,2.07
2018-03-27T04:11:33.105Z,1.80
2018-03-27T04:14:01.685Z,2.00
2018-03-27T04:16:28.733Z,2.20
2018-03-27T04:18:55.623Z,1.70
2018-03-27T04:21:22.574Z,1.80
2018-03-27T04:23:51.016Z,2.10
2018-03-27T04:26:18.581Z,2.10
2018-03-27T04:28:45.424Z,2.63
2018-03-27T04:31:12.316Z,2.47
2018-03-27T04:33:39.904Z,2.60
2018-03-27T04:36:07.190Z,2.10
2018-03-27T04:38:34.974Z,2.80
2018-03-27T04:41:01.917Z,2.20
2018-03-27T04:43:29.278Z,1.77
2018-03-27T04:45:56.339Z,2.13
2018-03-27T04:48:23.386Z,2.10
2018-03-27T04:50:50.443Z,2.10
2018-03-27T04:53:17.651Z,1.97
2018-03-27T04:55:46.128Z,2.07
2018-03-27T04:58:13.275Z,2.00
2018-03-27T05:00:40.180Z,2.50
2018-03-27T05:03:07.857Z,2.60
2018-03-27T05:05:34.823Z,4.90
2018-03-27T05:08:02.220Z,3.10
2018-03-27T05:10:29.029Z,3.37
2018-03-27T05:12:56.084Z,2.50
2018-03-27T05:15:22.864Z,3.37
2018-03-27T05:17:49.976Z,4.40
2018-03-27T05:20:17.555Z,4.17
2018-03-27T05:22:45.193Z,4.80
2018-03-27T05:25:12.154Z,4.47
2018-03-27T05:27:40.548Z,4.30
2018-03-27T05:30:07.572Z,4.47
2018-03-27T05:32:34.563Z,4.53
2018-03-27T05:35:02.133Z,4.43
2018-03-27T05:37:29.036Z,4.87
2018-03-27T05:39:56.818Z,4.67
2018-03-27T05:42:23.774Z,3.60
2018-03-27T05:44:50.748Z,4.20
2018-03-27T05:47:18.382Z,4.53
2018-03-27T05:49:46.309Z,4.60
2018-03-27T05:52:13.860Z,5.00
2018-03-27T05:54:40.679Z,4.50
2018-03-27T05:57:07.928Z,5.27
2018-03-27T05:59:35.542Z,5.00
2018-03-27T06:02:02.426Z,5.37
2018-03-27T06:04:29.532Z,5.17
2018-03-27T06:06:56.537Z,4.20
2018-03-27T06:09:23.519Z,3.63
2018-03-27T06:11:51.890Z,3.50
2018-03-27T06:14:18.820Z,3.80
2018-03-27T06:16:46.081Z,4.30
2018-03-27T06:19:13.243Z,3.30
2018-03-27T06:21:40.157Z,3.60
2018-03-27T06:24:07.040Z,3.13
2018-03-27T06:26:33.985Z,3.37
2018-03-27T06:29:00.891Z,3.33
2018-03-27T06:31:28.217Z,3.67
2018-03-27T06:33:55.968Z,3.27
2018-03-27T06:36:23.012Z,2.87
2018-03-27T06:38:49.972Z,4.00
2018-03-27T06:41:17.071Z,3.43
2018-03-27T06:43:44.398Z,3.23
2018-03-27T06:46:11.989Z,3.40
2018-03-27T06:48:39.544Z,3.47
2018-03-27T06:51:07.205Z,3.67
2018-03-27T06:53:35.535Z,3.30
2018-03-27T06:56:02.612Z,3.60
2018-03-27T06:58:29.576Z,4.00
2018-03-27T07:00:57.691Z,3.53
2018-03-27T07:03:24.641Z,3.80
2018-03-27T07:05:52.381Z,4.13
2018-03-27T07:08:19.958Z,3.70
2018-03-27T07:10:47.184Z,3.80
2018-03-27T07:13:14.676Z,3.30
2018-03-27T07:15:42.314Z,3.50
2018-03-27T07:18:09.497Z,3.50
2018-03-27T07:20:36.398Z,3.50
2018-03-27T07:23:04.194Z,3.40
2018-03-27T07:25:32.170Z,4.07
2018-03-27T07:27:59.059Z,3.90
2018-03-27T07:30:25.961Z,3.60
2018-03-27T07:32:52.852Z,3.80
2018-03-27T07:35:20.982Z,3.50
2018-03-27T07:37:48.314Z,3.97
2018-03-27T07:40:15.190Z,3.60
2018-03-27T07:42:42.144Z,3.60
2018-03-27T07:45:08.988Z,3.87
2018-03-27T07:47:36.061Z,3.60
2018-03-27T07:50:04.534Z,3.73
2018-03-27T07:52:31.477Z,3.80
2018-03-27T07:54:58.400Z,3.43
2018-03-27T07:57:25.286Z,4.00
2018-03-27T07:59:53.190Z,3.70
2018-03-27T08:02:20.773Z,3.10
2018-03-27T08:04:47.606Z,3.00
2018-03-27T08:07:14.608Z,3.87
2018-03-27T08:09:41.662Z,3.30
2018-03-27T08:12:08.698Z,3.10
2018-03-27T08:14:36.377Z,3.20
2018-03-27T08:17:03.235Z,2.83
2018-03-27T08:19:30.364Z,3.23
2018-03-27T08:21:57.231Z,2.60
2018-03-27T08:24:24.351Z,3.50
2018-03-27T08:26:51.139Z,3.23
2018-03-27T08:29:18.260Z,3.57
2018-03-27T08:31:45.968Z,4.70
2018-03-27T08:34:13.212Z,4.87
2018-03-27T08:36:40.164Z,4.77
2018-03-27T08:39:07.153Z,5.03
2018-03-27T08:41:34.221Z,5.30
2018-03-27T08:44:02.048Z,4.93
2018-03-27T08:46:29.148Z,5.13
2018-03-27T08:48:56.149Z,5.07
2018-03-27T08:51:23.101Z,5.27
2018-03-27T08:53:50.046Z,4.93
2018-03-27T08:56:16.848Z,5.07
2018-03-27T08:58:44.614Z,4.77
2018-03-27T09:01:12.348Z,4.70
2018-03-27T09:03:39.517Z,4.77
2018-03-27T09:06:07.087Z,5.17
2018-03-27T09:08:35.590Z,5.07
2018-03-27T09:11:02.551Z,5.33
2018-03-27T09:13:29.988Z,5.20
2018-03-27T09:16:04.621Z,4.77
2018-03-27T09:18:31.639Z,5.27
2018-03-27T09:20:59.192Z,4.47
2018-03-27T09:23:26.092Z,5.17
2018-03-27T09:25:52.876Z,4.80
2018-03-27T09:28:19.829Z,4.50
2018-03-27T09:30:46.622Z,4.13
2018-03-27T09:33:13.825Z,4.20
2018-03-27T09:35:40.792Z,4.37
2018-03-27T09:38:07.601Z,4.10
2018-03-27T09:40:34.486Z,4.37
2018-03-27T09:43:01.368Z,4.60
2018-03-27T09:45:29.117Z,4.07
2018-03-27T09:47:57.319Z,4.53
2018-03-27T09:50:24.951Z,4.30
2018-03-27T09:52:52.100Z,4.40
2018-03-27T09:55:19.170Z,3.87
2018-03-27T09:57:47.023Z,3.87
2018-03-27T10:00:14.878Z,4.10
2018-03-27T10:02:41.854Z,4.03
2018-03-27T10:05:09.902Z,3.93
2018-03-27T10:07:37.012Z,4.07
2018-03-27T10:10:04.164Z,3.33
2018-03-27T10:12:30.984Z,4.40
2018-03-27T10:14:58.141Z,4.07
2018-03-27T10:17:26.013Z,4.27
2018-03-27T10:19:53.172Z,3.53
2018-03-27T10:22:27.812Z,4.10
2018-03-27T10:24:56.269Z,4.20
2018-03-27T10:27:23.184Z,3.53
2018-03-27T10:29:50.632Z,4.30
2018-03-27T10:32:17.650Z,3.30
2018-03-27T10:34:44.657Z,4.00
2018-03-27T10:37:11.614Z,4.70
2018-03-27T10:39:38.434Z,3.50
2018-03-27T10:42:05.293Z,4.27
2018-03-27T10:44:32.210Z,3.33
2018-03-27T10:47:00.518Z,3.47
2018-03-27T10:49:27.448Z,4.07
2018-03-27T10:51:55.485Z,3.80
2018-03-27T10:54:22.339Z,3.90
2018-03-27T10:56:49.295Z,3.50
2018-03-27T10:59:16.244Z,4.20
2018-03-27T11:01:43.399Z,3.77
2018-03-27T11:04:10.255Z,4.00
2018-03-27T11:06:37.408Z,4.17
2018-03-27T11:09:04.354Z,4.00
2018-03-27T11:11:31.315Z,4.20
2018-03-27T11:13:58.247Z,4.37
2018-03-27T11:16:25.089Z,4.07
2018-03-27T11:18:51.964Z,4.70
2018-03-27T11:21:18.936Z,4.90
2018-03-27T11:23:45.784Z,4.80
2018-03-27T11:26:13.003Z,5.07
2018-03-27T11:28:41.389Z,4.97
2018-03-27T11:31:08.363Z,4.60
2018-03-27T11:33:36.698Z,5.80
2018-03-27T11:36:03.864Z,5.67
2018-03-27T11:38:30.830Z,5.33
2018-03-27T11:40:57.777Z,5.53
2018-03-27T11:43:25.432Z,5.43
2018-03-27T11:45:53.056Z,6.03
2018-03-27T11:48:20.011Z,6.57
2018-03-27T11:50:47.721Z,6.37
2018-03-27T11:53:14.621Z,6.60
2018-03-27T11:55:42.121Z,4.33
2018-03-27T11:58:09.096Z,4.70
2018-03-27T12:00:37.242Z,4.40
2018-03-27T12:03:04.069Z,4.57
2018-03-27T12:05:31.572Z,3.67
2018-03-27T12:07:58.470Z,4.50
2018-03-27T12:10:25.979Z,3.60
2018-03-27T12:12:53.241Z,3.90
2018-03-27T12:15:20.513Z,3.00
2018-03-27T12:17:48.155Z,3.30
2018-03-27T12:20:15.932Z,2.80
2018-03-27T12:22:43.695Z,2.47
2018-03-27T12:25:10.613Z,3.13
2018-03-27T12:27:38.029Z,3.20
2018-03-27T12:30:07.325Z,2.70
2018-03-27T12:32:36.228Z,3.50
2018-03-27T12:35:03.264Z,3.03
2018-03-27T12:37:30.062Z,2.90
2018-03-27T12:39:57.084Z,2.73
2018-03-27T12:42:25.400Z,2.83
2018-03-27T12:44:52.504Z,2.67
2018-03-27T12:47:20.164Z,2.73
2018-03-27T12:49:47.019Z,2.80
2018-03-27T12:52:14.533Z,2.60
2018-03-27T12:54:41.448Z,2.73
2018-03-27T12:57:08.446Z,2.40
2018-03-27T12:59:35.444Z,2.13
2018-03-27T13:02:03.213Z,2.50
2018-03-27T13:04:30.917Z,2.53
2018-03-27T13:06:57.775Z,2.60
2018-03-27T13:09:25.484Z,2.77
2018-03-27T13:11:52.369Z,2.30
2018-03-27T13:14:20.215Z,2.30
2018-03-27T13:16:47.185Z,2.23
2018-03-27T13:19:14.823Z,2.67
2018-03-27T13:21:41.782Z,2.50
2018-03-27T13:24:09.161Z,2.47
2018-03-27T13:26:37.524Z,2.23
2018-03-27T13:29:04.475Z,2.30
2018-03-27T13:31:31.752Z,2.30
2018-03-27T13:33:59.522Z,2.30
2018-03-27T13:36:26.673Z,1.97
2018-03-27T13:38:55.245Z,2.40
2018-03-27T13:41:22.369Z,2.43
2018-03-27T13:43:50.074Z,2.77
2018-03-27T13:46:17.019Z,2.50
2018-03-27T13:48:44.810Z,1.80
2018-03-27T13:51:12.819Z,2.23
2018-03-27T13:53:40.016Z,2.40
2018-03-27T13:56:06.926Z,2.40
2018-03-27T13:58:34.750Z,2.10
2018-03-27T14:01:03.149Z,2.47
2018-03-27T14:03:30.276Z,1.90
2018-03-27T14:05:58.077Z,2.20
2018-03-27T14:08:25.110Z,2.00
2018-03-27T14:10:52.780Z,1.90
2018-03-27T14:13:20.534Z,2.50
2018-03-27T14:15:48.759Z,2.33
2018-03-27T14:18:16.427Z,1.80
2018-03-27T14:20:43.334Z,2.63
2018-03-27T14:23:10.978Z,1.97
2018-03-27T14:25:38.043Z,2.23
2018-03-27T14:28:05.942Z,2.43
2018-03-27T14:30:33.590Z,1.77
2018-03-27T14:33:01.322Z,2.10
2018-03-27T14:35:28.318Z,2.30
2018-03-27T14:37:56.173Z,2.23
2018-03-27T14:40:23.094Z,2.23
2018-03-27T14:42:50.503Z,2.20
2018-03-27T14:45:18.978Z,2.13
2018-03-27T14:47:46.742Z,2.27
2018-03-27T14:50:14.008Z,1.93
2018-03-27T14:52:41.856Z,2.03
2018-03-27T14:55:09.141Z,2.10
2018-03-27T14:57:37.664Z,2.57
2018-03-27T15:00:04.763Z,2.00
2018-03-27T15:02:33.862Z,3.17
2018-03-27T15:05:00.860Z,2.57
2018-03-27T15:07:28.536Z,3.03
2018-03-27T15:09:55.489Z,2.47
2018-03-27T15:12:23.313Z,3.07
2018-03-27T15:14:50.922Z,2.50
2018-03-27T15:17:17.972Z,3.20
2018-03-27T15:19:44.787Z,2.63
2018-03-27T15:22:12.447Z,2.80
2018-03-27T15:24:39.402Z,2.30
2018-03-27T15:27:07.078Z,2.97
2018-03-27T15:29:34.731Z,2.70
2018-03-27T15:32:01.898Z,2.67
2018-03-27T15:34:30.275Z,2.37
2018-03-27T15:36:58.047Z,2.53
2018-03-27T15:39:25.747Z,2.57
2018-03-27T15:41:52.651Z,3.10
2018-03-27T15:44:19.763Z,2.70
2018-03-27T15:46:46.824Z,5.07
2018-03-27T15:49:13.700Z,5.30
2018-03-27T15:51:40.745Z,5.70
2018-03-27T15:54:07.647Z,5.60
2018-03-27T15:56:34.542Z,5.57
2018-03-27T15:59:01.722Z,6.03
2018-03-27T16:01:29.562Z,6.20
2018-03-27T16:03:57.598Z,5.50
2018-03-27T16:06:26.315Z,5.80
2018-03-27T16:08:53.169Z,6.10
2018-03-27T16:11:20.112Z,4.67
2018-03-27T16:13:47.988Z,8.43
2018-03-27T16:16:15.370Z,5.53
2018-03-27T16:18:43.042Z,4.83
2018-03-27T16:21:10.027Z,4.63
2018-03-27T16:23:37.735Z,5.00
2018-03-27T16:26:04.888Z,5.83
2018-03-27T16:28:32.586Z,4.33
2018-03-27T16:30:59.501Z,4.30
2018-03-27T16:33:27.079Z,4.17
2018-03-27T16:35:54.072Z,3.97
2018-03-27T16:38:21.592Z,4.33
2018-03-27T16:40:48.517Z,3.80
2018-03-27T16:43:16.328Z,4.43
2018-03-27T16:45:43.272Z,2.93
2018-03-27T16:48:10.750Z,4.20
2018-03-27T16:50:37.704Z,3.47
2018-03-27T16:53:05.890Z,3.43
2018-03-27T16:55:33.531Z,3.77
2018-03-27T16:58:00.409Z,3.07
2018-03-27T17:00:28.058Z,3.00
2018-03-27T17:02:55.229Z,3.40
2018-03-27T17:05:23.685Z,2.80
2018-03-27T17:07:50.653Z,2.73
2018-03-27T17:10:18.339Z,3.10
2018-03-27T17:12:45.995Z,3.10
2018-03-27T17:15:13.658Z,3.03
2018-03-27T17:17:42.042Z,2.30
2018-03-27T17:20:09.722Z,2.30
2018-03-27T17:22:37.471Z,2.67
2018-03-27T17:25:04.849Z,2.73
2018-03-27T17:27:32.498Z,2.90
2018-03-27T17:30:00.586Z,2.80
2018-03-27T17:32:28.230Z,2.10
2018-03-27T17:34:55.201Z,2.37
2018-03-27T17:37:24.134Z,2.63
2018-03-27T17:39:51.171Z,2.40
2018-03-27T17:42:18.897Z,2.60
2018-03-27T17:44:45.825Z,2.20
2018-03-27T17:47:13.727Z,2.30
2018-03-27T17:49:40.779Z,2.10
2018-03-27T17:52:08.403Z,1.80
2018-03-27T17:54:35.710Z,2.03
2018-03-27T17:57:03.165Z,2.50
2018-03-27T17:59:30.729Z,2.30
2018-03-27T18:01:58.488Z,2.40
2018-03-27T18:04:26.370Z,1.70
2018-03-27T18:06:53.298Z,1.97
2018-03-27T18:09:20.578Z,2.00
2018-03-27T18:11:47.491Z,2.27
2018-03-27T18:14:14.746Z,2.10
2018-03-27T18:16:41.742Z,2.10
2018-03-27T18:19:09.398Z,2.10
2018-03-27T18:21:37.650Z,2.00
2018-03-27T18:24:04.807Z,2.70
2018-03-27T18:26:32.481Z,2.27
2018-03-27T18:29:00.263Z,2.23
2018-03-27T18:31:27.208Z,1.90
2018-03-27T18:33:54.199Z,1.60
2018-03-27T18:36:21.476Z,1.80
2018-03-27T18:38:48.520Z,2.10
2018-03-27T18:41:15.990Z,2.03
2018-03-27T18:43:45.164Z,2.10
2018-03-27T18:46:13.039Z,1.67
2018-03-27T18:48:40.829Z,1.53
2018-03-27T18:51:07.829Z,1.40
2018-03-27T18:53:35.142Z,1.77
2018-03-27T18:56:03.024Z,1.40
2018-03-27T18:58:29.879Z,1.70
2018-03-27T19:00:57.594Z,1.63
2018-03-27T19:03:24.575Z,1.53
2018-03-27T19:05:52.165Z,1.90
2018-03-27T19:08:19.134Z,1.70
2018-03-27T19:10:46.582Z,1.50
2018-03-27T19:13:13.534Z,1.40
2018-03-27T19:15:40.986Z,1.57
2018-03-27T19:18:07.830Z,1.43
2018-03-27T19:20:35.150Z,1.53
2018-03-27T19:23:02.983Z,1.37
2018-03-27T19:25:30.277Z,1.67
2018-03-27T19:27:58.832Z,1.70
2018-03-27T19:30:25.818Z,1.63
2018-03-27T19:32:53.583Z,1.60
2018-03-27T19:35:21.197Z,1.90
2018-03-27T19:37:48.591Z,1.47
2018-03-27T19:40:15.671Z,1.80
2018-03-27T19:42:43.448Z,1.70
2018-03-27T19:45:10.426Z,1.70
2018-03-27T19:47:38.178Z,1.70
2018-03-27T19:50:05.951Z,1.57
2018-03-27T19:52:32.963Z,1.73
2018-03-27T19:55:01.147Z,1.70
2018-03-27T19:57:29.649Z,1.67
2018-03-27T19:59:57.490Z,1.87
2018-03-27T20:02:24.541Z,1.70
2018-03-27T20:04:51.715Z,1.67
2018-03-27T20:07:19.336Z,2.23
2018-03-27T20:09:46.277Z,1.80
2018-03-27T20:12:13.610Z,1.90
2018-03-27T20:14:40.536Z,1.80
2018-03-27T20:19:41.786Z,1.63
2018-03-27T20:22:08.661Z,1.50
2018-03-27T20:24:37.048Z,1.80
2018-03-27T20:27:04.904Z,2.10
2018-03-27T20:29:32.878Z,1.57
2018-03-27T20:32:00.542Z,1.97
2018-03-27T20:34:27.496Z,1.50
2018-03-27T20:36:55.142Z,1.97
2018-03-27T20:39:22.101Z,2.03
2018-03-27T20:41:49.989Z,1.63
2018-03-27T20:44:17.646Z,1.90
2018-03-27T20:46:45.529Z,1.73
2018-03-27T20:49:13.998Z,1.80
2018-03-27T20:51:40.923Z,1.97
2018-03-27T20:54:08.521Z,1.87
2018-03-27T20:56:35.713Z,1.70
2018-03-27T20:59:02.726Z,2.23
2018-03-27T21:01:29.586Z,2.00
2018-03-27T21:03:57.238Z,1.70
2018-03-27T21:06:24.186Z,2.20
2018-03-27T21:08:51.753Z,2.10
2018-03-27T21:11:20.884Z,1.60
2018-03-27T21:13:47.766Z,2.03
2018-03-27T21:16:15.464Z,1.70
2018-03-27T21:18:42.656Z,2.00
2018-03-27T21:21:10.064Z,1.70
2018-03-27T21:23:36.932Z,1.80
2018-03-27T21:26:04.147Z,2.10
2018-03-27T21:28:31.039Z,1.63
2018-03-27T21:30:58.404Z,1.97
2018-03-27T21:33:25.340Z,1.87
2018-03-27T21:35:52.399Z,1.67
2018-03-27T21:38:20.019Z,1.80
2018-03-27T21:40:47.322Z,2.07
2018-03-27T21:43:15.050Z,1.53
2018-03-27T21:45:42.051Z,2.00
2018-03-27T21:48:09.705Z,2.17
2018-03-27T21:50:36.678Z,1.70
2018-03-27T21:53:04.582Z,1.90
2018-03-27T21:55:31.687Z,2.03
2018-03-27T21:57:59.303Z,1.63
2018-03-27T22:00:27.076Z,2.33
2018-03-27T22:02:53.975Z,2.17
2018-03-27T22:05:20.939Z,2.00
2018-03-27T22:07:47.879Z,2.70
2018-03-27T22:10:14.772Z,2.17
2018-03-27T22:12:41.774Z,2.00
2018-03-27T22:15:08.764Z,1.80
2018-03-27T22:17:35.644Z,1.87
2018-03-27T22:20:02.569Z,2.10
2018-03-27T22:22:29.794Z,2.00
2018-03-27T22:24:57.449Z,2.20
2018-03-27T22:27:24.721Z,5.17
2018-03-27T22:29:53.203Z,4.97
2018-03-27T22:32:20.915Z,3.80
2018-03-27T22:34:47.906Z,3.67
2018-03-27T22:37:14.966Z,3.90
2018-03-27T22:39:42.218Z,3.80
2018-03-27T22:42:09.167Z,4.17
2018-03-27T22:44:36.116Z,3.73
2018-03-27T22:47:03.167Z,3.70
2018-03-27T22:49:30.322Z,4.10
2018-03-27T22:51:57.387Z,3.70
2018-03-27T22:54:24.196Z,3.50
2018-03-27T22:56:51.168Z,3.60
2018-03-27T22:59:18.846Z,4.23
2018-03-27T23:01:45.741Z,4.67
2018-03-27T23:04:12.644Z,3.90
2018-03-27T23:06:39.702Z,3.83
2018-03-27T23:09:06.746Z,4.27
2018-03-27T23:11:33.764Z,4.00
2018-03-27T23:14:00.754Z,4.20
2018-03-27T23:16:27.722Z,5.00
2018-03-27T23:18:55.591Z,4.67
2018-03-27T23:21:23.958Z,4.73
2018-03-27T23:23:51.825Z,4.57
2018-03-27T23:26:18.879Z,4.37
2018-03-27T23:28:45.722Z,6.33
2018-03-27T23:31:12.624Z,4.70
2018-03-27T23:33:39.643Z,4.00
2018-03-27T23:36:07.401Z,3.93
2018-03-27T23:38:35.990Z,4.30
2018-03-27T23:41:03.662Z,4.53
2018-03-27T23:43:30.584Z,4.63
2018-03-27T23:45:57.466Z,4.03
2018-03-27T23:48:25.126Z,3.60
2018-03-27T23:50:52.067Z,4.07
2018-03-27T23:53:19.217Z,4.80
2018-03-27T23:55:46.278Z,5.37
2018-03-27T23:58:13.955Z,4.83
